createdAt,value
2023-01-13T00:00:15.020Z,65.57
2023-01-13T00:02:41.751Z,66.59
2023-01-13T00:05:08.884Z,66.18
2023-01-13T00:07:35.730Z,65.53
2023-01-13T00:10:02.404Z,64.28
2023-01-13T00:12:29.108Z,63.02
2023-01-13T00:14:55.857Z,61.78
2023-01-13T00:17:23.134Z,62.10
2023-01-13T00:19:49.737Z,62.03
2023-01-13T00:22:17.602Z,63.40
2023-01-13T00:24:44.456Z,61.24
2023-01-13T00:27:11.102Z,59.84
2023-01-13T00:29:37.731Z,58.67
2023-01-13T00:32:04.569Z,58.36
2023-01-13T00:34:31.580Z,58.16
2023-01-13T00:36:58.355Z,57.65
2023-01-13T00:39:24.997Z,57.71
2023-01-13T00:41:52.711Z,57.98
2023-01-13T00:44:19.438Z,58.41
2023-01-13T00:46:46.260Z,56.48
2023-01-13T00:49:13.082Z,58.41
2023-01-13T00:51:39.764Z,60.20
2023-01-13T00:54:08.287Z,59.11
2023-01-13T00:56:40.111Z,59.29
2023-01-13T00:59:10.551Z,59.42
2023-01-13T01:01:37.325Z,59.98
2023-01-13T01:04:04.338Z,61.83
2023-01-13T01:06:31.326Z,62.22
2023-01-13T01:08:58.114Z,62.44
2023-01-13T01:11:30.895Z,62.71
2023-01-13T01:14:02.275Z,62.89
2023-01-13T01:16:30.966Z,62.62
2023-01-13T01:18:58.259Z,61.64
2023-01-13T01:21:29.245Z,62.24
2023-01-13T01:23:55.946Z,62.01
2023-01-13T01:26:25.508Z,61.38
2023-01-13T01:28:53.286Z,62.05
2023-01-13T01:31:28.740Z,62.26
2023-01-13T01:33:55.767Z,61.85
2023-01-13T01:36:24.287Z,61.24
2023-01-13T01:38:50.931Z,60.32
2023-01-13T01:41:21.374Z,61.13
2023-01-13T01:43:55.540Z,61.76
2023-01-13T01:46:23.243Z,62.19
2023-01-13T01:48:50.035Z,60.57
2023-01-13T01:51:17.143Z,59.66
2023-01-13T01:53:44.327Z,59.88
2023-01-13T01:56:11.483Z,61.74
2023-01-13T01:58:46.761Z,61.54
2023-01-13T02:01:14.466Z,61.27
2023-01-13T02:03:50.355Z,62.37
2023-01-13T02:06:17.512Z,62.15
2023-01-13T02:08:44.311Z,62.41
2023-01-13T02:11:27.658Z,62.37
2023-01-13T02:13:54.582Z,62.77
2023-01-13T02:16:24.336Z,63.23
2023-01-13T02:19:11.086Z,62.67
2023-01-13T02:22:22.157Z,63.31
2023-01-13T02:25:22.339Z,63.18
2023-01-13T02:28:18.486Z,63.01
2023-01-13T02:30:56.652Z,62.16
2023-01-13T02:33:43.405Z,63.44
2023-01-13T02:36:34.000Z,63.89
2023-01-13T02:39:11.554Z,63.79
2023-01-13T02:42:02.354Z,63.52
2023-01-13T02:44:42.524Z,63.80
2023-01-13T02:47:20.559Z,63.73
2023-01-13T02:49:52.776Z,63.38
2023-01-13T02:52:40.216Z,62.88
2023-01-13T02:55:17.389Z,62.65
2023-01-13T02:57:46.572Z,62.42
2023-01-13T03:00:16.801Z,63.00
2023-01-13T03:02:43.456Z,62.77
2023-01-13T03:05:15.635Z,62.97
2023-01-13T03:07:47.658Z,63.47
2023-01-13T03:10:27.729Z,63.33
2023-01-13T03:13:07.549Z,62.77
2023-01-13T03:15:46.300Z,63.17
2023-01-13T03:18:31.526Z,63.88
2023-01-13T03:21:35.239Z,64.33
2023-01-13T03:24:20.203Z,63.26
2023-01-13T03:27:11.273Z,64.36
2023-01-13T03:29:52.483Z,64.56
2023-01-13T03:32:38.534Z,65.23
2023-01-13T03:35:23.637Z,65.98
2023-01-13T03:38:18.255Z,65.19
2023-01-13T03:40:58.061Z,64.08
2023-01-13T03:43:34.395Z,66.37
2023-01-13T03:46:14.186Z,65.39
2023-01-13T03:48:46.181Z,66.88
2023-01-13T03:51:20.614Z,67.82
2023-01-13T03:54:00.685Z,67.30
2023-01-13T03:56:41.162Z,67.19
2023-01-13T03:59:14.798Z,66.96
2023-01-13T04:01:48.350Z,67.56
2023-01-13T04:04:26.908Z,67.93
2023-01-13T04:07:01.187Z,68.43
2023-01-13T04:10:00.280Z,68.07
2023-01-13T04:12:44.351Z,68.29
2023-01-13T04:15:12.787Z,68.83
2023-01-13T04:17:39.408Z,69.58
2023-01-13T04:20:06.544Z,70.37
2023-01-13T04:22:33.208Z,71.44
2023-01-13T04:24:59.857Z,72.41
2023-01-13T04:27:26.429Z,73.68
2023-01-13T04:29:53.073Z,73.43
2023-01-13T04:32:19.686Z,74.63
2023-01-13T04:34:46.296Z,75.38
2023-01-13T04:37:12.978Z,76.71
2023-01-13T04:39:39.600Z,75.63
2023-01-13T04:42:06.231Z,76.78
2023-01-13T04:44:32.844Z,76.71
2023-01-13T04:46:59.527Z,76.85
2023-01-13T04:49:26.216Z,77.46
2023-01-13T04:51:53.194Z,76.94
2023-01-13T04:54:20.203Z,78.52
2023-01-13T04:56:46.896Z,78.58
2023-01-13T04:59:14.659Z,78.73
2023-01-13T05:01:41.553Z,79.36
2023-01-13T05:04:08.968Z,78.74
2023-01-13T05:06:35.630Z,79.42
2023-01-13T05:09:02.354Z,78.43
2023-01-13T05:11:28.925Z,79.37
2023-01-13T05:13:55.535Z,78.83
2023-01-13T05:16:22.257Z,79.30
2023-01-13T05:18:49.027Z,78.64
2023-01-13T05:21:15.620Z,78.68
2023-01-13T05:23:42.231Z,79.53
2023-01-13T05:26:08.972Z,79.44
2023-01-13T05:28:35.678Z,79.53
2023-01-13T05:31:02.381Z,79.50
2023-01-13T05:33:29.059Z,79.42
2023-01-13T05:35:55.883Z,79.38
2023-01-13T05:38:22.701Z,78.67
2023-01-13T05:40:49.401Z,79.08
2023-01-13T05:43:18.448Z,79.41
2023-01-13T05:45:45.526Z,79.69
2023-01-13T05:48:12.652Z,80.30
2023-01-13T05:50:39.364Z,79.73
2023-01-13T05:53:06.460Z,80.29
2023-01-13T05:55:33.128Z,80.30
2023-01-13T05:57:59.876Z,80.21
2023-01-13T06:00:26.531Z,80.20
2023-01-13T06:02:53.152Z,80.22
2023-01-13T06:05:19.853Z,80.06
2023-01-13T06:07:46.672Z,79.97
2023-01-13T06:10:13.516Z,79.98
2023-01-13T06:12:40.208Z,80.21
2023-01-13T06:15:07.333Z,79.59
2023-01-13T06:17:33.972Z,78.91
2023-01-13T06:20:00.661Z,79.06
2023-01-13T06:22:30.968Z,79.10
2023-01-13T06:24:58.585Z,80.20
2023-01-13T06:27:25.898Z,80.86
2023-01-13T06:29:52.525Z,81.16
2023-01-13T06:32:24.633Z,81.15
2023-01-13T06:35:01.053Z,81.64
2023-01-13T06:37:30.582Z,81.35
2023-01-13T06:40:01.892Z,81.48
2023-01-13T06:42:33.001Z,80.78
2023-01-13T06:44:59.952Z,79.75
2023-01-13T06:47:26.540Z,80.54
2023-01-13T06:49:53.154Z,80.22
2023-01-13T06:52:19.805Z,80.02
2023-01-13T06:54:46.486Z,79.53
2023-01-13T06:57:13.375Z,80.58
2023-01-13T06:59:39.991Z,81.75
2023-01-13T07:02:06.775Z,81.26
2023-01-13T07:04:33.477Z,81.16
2023-01-13T07:07:00.124Z,80.98
2023-01-13T07:09:26.751Z,80.59
2023-01-13T07:11:53.387Z,81.10
2023-01-13T07:14:20.065Z,81.36
2023-01-13T07:16:46.723Z,81.95
2023-01-13T07:19:13.374Z,81.81
2023-01-13T07:21:39.988Z,80.93
2023-01-13T07:24:06.841Z,80.99
2023-01-13T07:26:33.451Z,81.31
2023-01-13T07:29:00.135Z,80.67
2023-01-13T07:31:26.786Z,81.38
2023-01-13T07:33:53.409Z,81.54
2023-01-13T07:36:20.075Z,82.07
2023-01-13T07:38:46.713Z,83.15
2023-01-13T07:41:14.822Z,82.61
2023-01-13T07:43:41.421Z,81.55
2023-01-13T07:46:08.116Z,81.69
2023-01-13T07:48:35.072Z,82.52
2023-01-13T07:51:12.273Z,82.61
2023-01-13T07:53:38.953Z,82.36
2023-01-13T07:56:07.230Z,81.99
2023-01-13T07:58:35.930Z,82.39
2023-01-13T08:01:11.265Z,82.25
2023-01-13T08:03:38.590Z,81.69
2023-01-13T08:06:05.522Z,81.95
2023-01-13T08:08:32.301Z,82.57
2023-01-13T08:11:00.892Z,81.81
2023-01-13T08:13:27.578Z,81.28
2023-01-13T08:16:03.372Z,81.65
2023-01-13T08:18:32.499Z,81.77
2023-01-13T08:21:03.267Z,83.10
2023-01-13T08:23:30.229Z,82.74
2023-01-13T08:26:06.068Z,82.08
2023-01-13T08:28:32.828Z,82.22
2023-01-13T08:31:02.122Z,81.79
2023-01-13T08:33:29.733Z,82.22
2023-01-13T08:35:56.778Z,81.57
2023-01-13T08:38:24.029Z,81.61
2023-01-13T08:40:50.922Z,81.58
2023-01-13T08:43:17.507Z,79.68
2023-01-13T08:45:44.170Z,80.36
2023-01-13T08:48:10.769Z,82.24
2023-01-13T08:50:37.479Z,81.58
2023-01-13T08:53:04.148Z,81.87
2023-01-13T08:55:30.765Z,81.87
2023-01-13T08:58:14.193Z,81.98
2023-01-13T09:00:42.532Z,81.88
2023-01-13T09:03:09.275Z,81.45
2023-01-13T09:05:36.188Z,83.14
2023-01-13T09:08:03.049Z,82.79
2023-01-13T09:10:29.746Z,83.43
2023-01-13T09:12:56.359Z,83.01
2023-01-13T09:15:23.044Z,83.74
2023-01-13T09:17:49.659Z,84.21
2023-01-13T09:20:16.407Z,82.80
2023-01-13T09:22:43.072Z,82.52
2023-01-13T09:25:09.980Z,80.93
2023-01-13T09:27:36.619Z,81.46
2023-01-13T09:30:04.150Z,82.14
2023-01-13T09:32:31.144Z,80.68
2023-01-13T09:34:57.737Z,80.92
2023-01-13T09:37:25.168Z,80.88
2023-01-13T09:39:51.749Z,79.66
2023-01-13T09:42:24.893Z,79.24
2023-01-13T09:45:04.820Z,77.07
2023-01-13T09:47:42.976Z,75.92
2023-01-13T09:50:28.956Z,76.00
2023-01-13T09:52:57.227Z,76.47
2023-01-13T09:55:35.000Z,78.22
2023-01-13T09:58:10.288Z,79.02
2023-01-13T10:00:45.574Z,79.81
2023-01-13T10:03:20.217Z,79.43
2023-01-13T10:06:05.383Z,79.38
2023-01-13T10:08:38.093Z,79.03
2023-01-13T10:11:13.219Z,78.93
2023-01-13T10:13:41.374Z,77.55
2023-01-13T10:16:22.463Z,76.35
2023-01-13T10:19:02.432Z,77.48
2023-01-13T10:21:29.061Z,76.26
2023-01-13T10:24:05.305Z,75.02
2023-01-13T10:26:45.118Z,75.86
2023-01-13T10:29:29.085Z,76.33
2023-01-13T10:31:58.003Z,78.23
2023-01-13T10:34:26.779Z,77.07
2023-01-13T10:37:02.204Z,76.16
2023-01-13T10:39:40.220Z,76.78
2023-01-13T10:42:13.938Z,74.91
2023-01-13T10:44:57.086Z,75.14
2023-01-13T10:47:36.009Z,76.38
2023-01-13T10:50:09.757Z,77.00
2023-01-13T10:52:54.638Z,76.88
2023-01-13T10:55:29.632Z,75.51
2023-01-13T10:57:56.821Z,74.80
2023-01-13T11:00:33.310Z,75.46
2023-01-13T11:03:24.780Z,75.09
2023-01-13T11:06:00.450Z,74.48
2023-01-13T11:08:42.831Z,76.18
2023-01-13T11:11:35.308Z,77.24
2023-01-13T11:14:09.204Z,77.56
2023-01-13T11:16:52.785Z,74.90
2023-01-13T11:19:27.529Z,75.30
2023-01-13T11:21:59.116Z,74.98
2023-01-13T11:24:31.610Z,75.56
2023-01-13T11:27:24.181Z,75.14
2023-01-13T11:30:09.210Z,75.67
2023-01-13T11:32:56.321Z,75.26
2023-01-13T11:35:24.329Z,75.31
2023-01-13T11:38:02.692Z,75.16
2023-01-13T11:40:49.085Z,73.57
2023-01-13T11:43:36.590Z,72.27
2023-01-13T11:46:03.555Z,72.62
2023-01-13T11:48:35.657Z,73.46
2023-01-13T11:51:20.995Z,73.85
2023-01-13T11:54:10.744Z,73.41
2023-01-13T11:57:07.980Z,74.42
2023-01-13T12:00:03.973Z,72.32
2023-01-13T12:02:44.923Z,73.49
2023-01-13T12:05:39.378Z,71.66
2023-01-13T12:08:50.901Z,71.66
2023-01-13T12:11:20.300Z,74.42
2023-01-13T12:13:58.242Z,75.17
2023-01-13T12:16:32.779Z,74.82
2023-01-13T12:19:29.732Z,74.58
2023-01-13T12:22:11.616Z,74.07
2023-01-13T12:24:41.242Z,73.32
2023-01-13T12:27:38.883Z,72.27
2023-01-13T12:30:39.187Z,71.73
2023-01-13T12:33:44.704Z,72.61
2023-01-13T12:36:46.196Z,71.96
2023-01-13T12:39:18.606Z,71.58
2023-01-13T12:41:52.043Z,73.83
2023-01-13T12:44:18.771Z,73.49
2023-01-13T12:46:51.954Z,73.40
2023-01-13T12:49:21.899Z,72.52
2023-01-13T12:51:51.166Z,71.55
2023-01-13T12:54:39.420Z,72.11
2023-01-13T12:57:25.120Z,70.64
2023-01-13T13:00:00.789Z,68.92
2023-01-13T13:02:31.761Z,68.65
2023-01-13T13:05:23.875Z,68.10
2023-01-13T13:08:06.863Z,67.72
2023-01-13T13:10:55.269Z,66.95
2023-01-13T13:13:43.415Z,67.22
2023-01-13T13:16:31.184Z,67.88
2023-01-13T13:19:19.552Z,67.42
2023-01-13T13:22:13.875Z,67.48
2023-01-13T13:24:42.798Z,66.50
2023-01-13T13:27:30.001Z,67.61
2023-01-13T13:30:04.083Z,67.07
2023-01-13T13:32:45.551Z,63.80
2023-01-13T13:35:29.076Z,64.85
2023-01-13T13:38:08.904Z,64.22
2023-01-13T13:40:42.420Z,64.04
2023-01-13T13:43:13.921Z,64.27
2023-01-13T13:45:51.961Z,64.80
2023-01-13T13:48:29.865Z,64.06
2023-01-13T13:51:02.503Z,65.99
2023-01-13T13:53:41.854Z,65.11
2023-01-13T13:56:23.025Z,66.16
2023-01-13T13:58:50.800Z,65.76
2023-01-13T14:01:32.614Z,66.76
2023-01-13T14:04:19.861Z,66.68
2023-01-13T14:07:18.398Z,66.04
2023-01-13T14:09:48.017Z,64.94
2023-01-13T14:12:23.480Z,65.32
2023-01-13T14:14:51.520Z,64.90
2023-01-13T14:17:24.355Z,66.79
2023-01-13T14:19:55.546Z,67.07
2023-01-13T14:22:22.499Z,65.72
2023-01-13T14:24:49.925Z,65.91
2023-01-13T14:27:18.895Z,67.70
2023-01-13T14:29:45.931Z,66.93
2023-01-13T14:32:18.617Z,67.11
2023-01-13T14:34:45.771Z,66.73
2023-01-13T14:37:30.788Z,67.21
2023-01-13T14:39:57.390Z,68.34
2023-01-13T14:42:24.216Z,67.12
2023-01-13T14:44:51.243Z,68.39
2023-01-13T14:47:26.399Z,68.08
2023-01-13T14:49:56.150Z,68.06
2023-01-13T14:52:24.770Z,68.37
2023-01-13T14:55:22.338Z,68.22
2023-01-13T14:57:49.383Z,66.02
2023-01-13T15:00:15.987Z,66.37
2023-01-13T15:02:44.290Z,65.65
2023-01-13T15:05:17.104Z,64.49
2023-01-13T15:07:52.430Z,65.96
2023-01-13T15:10:23.964Z,67.55
2023-01-13T15:12:54.231Z,69.94
2023-01-13T15:15:29.618Z,70.33
2023-01-13T15:17:57.032Z,70.93
2023-01-13T15:20:25.434Z,68.80
2023-01-13T15:22:52.549Z,68.47
2023-01-13T15:25:19.223Z,69.29
2023-01-13T15:27:48.035Z,69.59
2023-01-13T15:30:15.694Z,69.92
2023-01-13T15:32:42.698Z,70.55
2023-01-13T15:35:19.796Z,70.96
2023-01-13T15:37:48.487Z,71.37
2023-01-13T15:40:32.781Z,69.78
2023-01-13T15:42:59.422Z,70.31
2023-01-13T15:45:26.982Z,70.93
2023-01-13T15:47:53.574Z,71.54
2023-01-13T15:50:20.163Z,72.19
2023-01-13T15:52:46.756Z,71.54
2023-01-13T15:55:13.355Z,70.54
2023-01-13T15:57:50.056Z,70.82
2023-01-13T16:00:20.052Z,70.66
2023-01-13T16:02:46.700Z,70.19
2023-01-13T16:05:13.572Z,68.70
2023-01-13T16:07:40.354Z,67.61
2023-01-13T16:10:18.433Z,67.15
2023-01-13T16:12:45.207Z,66.83
2023-01-13T16:15:17.298Z,66.63
2023-01-13T16:17:46.274Z,66.51
2023-01-13T16:20:18.255Z,66.63
2023-01-13T16:22:45.212Z,67.04
2023-01-13T16:25:21.202Z,65.89
2023-01-13T16:27:48.974Z,64.83
2023-01-13T16:30:21.257Z,64.19
2023-01-13T16:32:47.882Z,64.47
2023-01-13T16:35:16.596Z,64.63
2023-01-13T16:37:43.221Z,64.45
2023-01-13T16:40:23.695Z,63.88
2023-01-13T16:42:51.937Z,64.70
2023-01-13T16:45:19.740Z,64.80
2023-01-13T16:47:46.766Z,65.38
2023-01-13T16:50:33.194Z,65.23
2023-01-13T16:53:00.072Z,65.87
2023-01-13T16:55:26.715Z,65.82
2023-01-13T16:57:53.830Z,67.03
2023-01-13T17:00:21.086Z,66.70
2023-01-13T17:02:48.696Z,66.24
2023-01-13T17:05:15.754Z,66.29
2023-01-13T17:07:44.756Z,65.67
2023-01-13T17:10:20.940Z,65.20
2023-01-13T17:12:47.669Z,65.15
2023-01-13T17:15:17.077Z,66.13
2023-01-13T17:17:46.084Z,65.88
2023-01-13T17:20:15.142Z,66.10
2023-01-13T17:22:47.540Z,66.01
2023-01-13T17:25:16.395Z,65.63
2023-01-13T17:27:42.993Z,65.38
2023-01-13T17:30:11.752Z,65.98
2023-01-13T17:32:38.350Z,66.12
2023-01-13T17:35:05.371Z,65.43
2023-01-13T17:37:32.046Z,65.14
2023-01-13T17:39:58.762Z,64.64
2023-01-13T17:42:25.919Z,65.39
2023-01-13T17:44:52.581Z,66.14
2023-01-13T17:47:19.217Z,65.24
2023-01-13T17:49:46.326Z,64.89
2023-01-13T17:52:13.015Z,64.08
2023-01-13T17:54:39.692Z,63.40
2023-01-13T17:57:09.363Z,63.37
2023-01-13T17:59:36.046Z,62.05
2023-01-13T18:02:02.826Z,60.99
2023-01-13T18:04:29.471Z,60.40
2023-01-13T18:06:56.084Z,58.36
2023-01-13T18:09:22.889Z,57.09
2023-01-13T18:11:49.944Z,56.80
2023-01-13T18:14:17.095Z,55.63
2023-01-13T18:16:43.790Z,58.92
2023-01-13T18:19:10.874Z,60.46
2023-01-13T18:21:37.534Z,60.17
2023-01-13T18:24:04.974Z,60.19
2023-01-13T18:26:31.644Z,58.65
2023-01-13T18:28:58.243Z,58.41
2023-01-13T18:31:24.856Z,58.98
2023-01-13T18:33:51.796Z,59.12
2023-01-13T18:36:19.252Z,58.62
2023-01-13T18:38:45.937Z,59.20
2023-01-13T18:41:12.528Z,58.16
2023-01-13T18:43:39.216Z,58.90
2023-01-13T18:46:05.881Z,57.02
2023-01-13T18:48:32.549Z,57.68
2023-01-13T18:50:59.306Z,57.14
2023-01-13T18:53:26.012Z,55.75
2023-01-13T18:55:52.623Z,55.61
2023-01-13T18:58:19.301Z,55.48
2023-01-13T19:00:45.939Z,58.39
2023-01-13T19:03:12.604Z,60.83
2023-01-13T19:05:39.210Z,62.10
2023-01-13T19:08:06.454Z,63.96
2023-01-13T19:10:33.411Z,62.71
2023-01-13T19:13:00.365Z,63.88
2023-01-13T19:15:27.090Z,63.55
2023-01-13T19:17:53.719Z,62.75
2023-01-13T19:20:20.435Z,61.35
2023-01-13T19:22:47.050Z,61.52
2023-01-13T19:25:13.629Z,61.83
2023-01-13T19:27:40.209Z,62.63
2023-01-13T19:30:07.569Z,63.24
2023-01-13T19:32:34.213Z,63.34
2023-01-13T19:35:00.987Z,61.46
2023-01-13T19:37:28.492Z,62.31
2023-01-13T19:39:55.099Z,63.67
2023-01-13T19:42:21.718Z,62.98
2023-01-13T19:44:48.445Z,60.84
2023-01-13T19:47:15.112Z,59.70
2023-01-13T19:49:41.771Z,62.52
2023-01-13T19:52:08.681Z,64.71
2023-01-13T19:54:35.562Z,65.71
2023-01-13T19:57:02.474Z,66.20
2023-01-13T19:59:29.116Z,64.92
2023-01-13T20:02:00.572Z,66.18
2023-01-13T20:04:30.699Z,66.10
2023-01-13T20:06:57.402Z,65.38
2023-01-13T20:09:24.009Z,65.21
2023-01-13T20:11:50.959Z,66.14
2023-01-13T20:14:17.746Z,65.18
2023-01-13T20:16:45.384Z,66.09
2023-01-13T20:19:12.095Z,66.50
2023-01-13T20:21:38.882Z,66.68
2023-01-13T20:24:06.225Z,66.46
2023-01-13T20:26:32.865Z,66.09
2023-01-13T20:28:59.540Z,64.92
2023-01-13T20:31:26.199Z,64.85
2023-01-13T20:33:52.827Z,65.28
2023-01-13T20:36:30.723Z,65.03
2023-01-13T20:38:59.587Z,65.52
2023-01-13T20:41:27.211Z,65.49
2023-01-13T20:43:53.823Z,64.91
2023-01-13T20:46:21.681Z,64.99
2023-01-13T20:48:48.754Z,65.37
2023-01-13T20:51:15.480Z,65.08
2023-01-13T20:53:42.203Z,65.67
2023-01-13T20:56:10.012Z,65.51
2023-01-13T20:58:38.439Z,65.70
2023-01-13T21:01:05.301Z,65.80
2023-01-13T21:03:31.995Z,66.88
2023-01-13T21:05:58.668Z,66.95
2023-01-13T21:08:25.375Z,67.85
2023-01-13T21:10:52.023Z,67.25
2023-01-13T21:13:18.623Z,67.53
2023-01-13T21:15:48.417Z,66.96
2023-01-13T21:18:15.305Z,66.27
2023-01-13T21:20:41.954Z,67.13
2023-01-13T21:23:09.091Z,68.21
2023-01-13T21:25:35.679Z,67.66
2023-01-13T21:28:02.602Z,67.55
2023-01-13T21:30:29.227Z,67.37
2023-01-13T21:32:55.802Z,68.69
2023-01-13T21:35:22.420Z,69.18
2023-01-13T21:37:49.010Z,69.11
2023-01-13T21:40:15.650Z,68.60
2023-01-13T21:42:42.268Z,67.59
2023-01-13T21:45:10.501Z,67.60
2023-01-13T21:47:37.125Z,68.34
2023-01-13T21:50:07.195Z,68.53
2023-01-13T21:52:33.849Z,68.26
2023-01-13T21:55:00.440Z,69.18
2023-01-13T21:57:28.216Z,68.66
2023-01-13T21:59:54.952Z,67.39
2023-01-13T22:02:23.880Z,67.39
2023-01-13T22:04:51.485Z,66.78
2023-01-13T22:07:19.128Z,67.40
2023-01-13T22:09:45.825Z,67.82
2023-01-13T22:12:12.548Z,67.87
2023-01-13T22:14:39.165Z,66.96
2023-01-13T22:17:05.767Z,67.41
2023-01-13T22:19:32.431Z,68.09
2023-01-13T22:21:59.764Z,67.12
2023-01-13T22:24:26.486Z,67.96
2023-01-13T22:26:53.311Z,67.68
2023-01-13T22:29:20.180Z,68.35
2023-01-13T22:31:46.907Z,68.43
2023-01-13T22:34:13.532Z,68.36
2023-01-13T22:36:40.148Z,67.97
2023-01-13T22:39:06.822Z,68.96
2023-01-13T22:41:33.483Z,69.36
2023-01-13T22:44:00.190Z,68.17
2023-01-13T22:46:26.827Z,67.84
2023-01-13T22:48:54.090Z,68.47
2023-01-13T22:51:21.122Z,70.94
2023-01-13T22:53:47.759Z,70.61
2023-01-13T22:56:18.333Z,69.73
2023-01-13T22:58:45.035Z,69.47
2023-01-13T23:01:14.942Z,70.62
2023-01-13T23:03:42.049Z,68.42
2023-01-13T23:06:08.826Z,67.74
2023-01-13T23:08:36.154Z,67.25
2023-01-13T23:11:05.367Z,67.76
2023-01-13T23:13:32.694Z,65.96
2023-01-13T23:16:08.542Z,65.03
2023-01-13T23:18:35.200Z,64.14
2023-01-13T23:21:07.223Z,65.29
2023-01-13T23:23:34.331Z,66.64
2023-01-13T23:26:01.009Z,66.59
2023-01-13T23:28:28.022Z,66.83
2023-01-13T23:30:54.766Z,65.23
2023-01-13T23:33:21.985Z,65.62
2023-01-13T23:36:02.828Z,65.69
2023-01-13T23:38:30.315Z,66.90
2023-01-13T23:40:57.268Z,67.97
2023-01-13T23:43:24.969Z,69.04
2023-01-13T23:45:53.029Z,68.96
2023-01-13T23:48:19.829Z,69.37
2023-01-13T23:51:00.247Z,68.95
2023-01-13T23:53:35.291Z,70.77
2023-01-13T23:56:04.863Z,70.22
2023-01-13T23:58:33.096Z,72.23
